Time;durP1;ratioP1;P1;durP2;ratioP2;P2;SDS_P1;SDS_P2;PMS_P1;PMS_P2;Temp;Humidity;BMP_temperature;BMP_pressure;BME280_temperature;BME280_humidity;BME280_pressure;Samples;Min_cycle;Max_cycle;Signal;HPM_P1;HPM_P2
2022/05/26 00:01:22;;;;;;;1.80;1.50;;;;;;;;;;5010189;28;20411;-88
2022/05/26 00:03:49;;;;;;;2.43;1.80;;;;;;;;;;5027097;28;20404;-87
2022/05/26 00:06:16;;;;;;;2.23;1.60;;;;;;;;;;5026920;28;20435;-88
2022/05/26 00:08:42;;;;;;;2.43;1.73;;;;;;;;;;5010328;28;20435;-88
2022/05/26 00:11:11;;;;;;;2.43;1.50;;;;;;;;;;5027810;28;20743;-88
2022/05/26 00:13:38;;;;;;;2.57;1.57;;;;;;;;;;5009188;28;20446;-88
2022/05/26 00:16:04;;;;;;;4.07;1.83;;;;;;;;;;5008763;28;20470;-88
2022/05/26 00:18:31;;;;;;;2.33;1.80;;;;;;;;;;5026586;28;20408;-88
2022/05/26 00:20:57;;;;;;;2.80;1.50;;;;;;;;;;5025930;28;20479;-87
2022/05/26 00:23:23;;;;;;;2.87;1.97;;;;;;;;;;5026751;28;20400;-88
2022/05/26 00:25:49;;;;;;;3.50;2.10;;;;;;;;;;5026293;28;20776;-87
2022/05/26 00:28:15;;;;;;;2.80;1.80;;;;;;;;;;5008598;28;20407;-88
2022/05/26 00:30:41;;;;;;;2.70;1.97;;;;;;;;;;5027313;28;20423;-88
2022/05/26 00:33:08;;;;;;;1.90;1.50;;;;;;;;;;5008612;28;20407;-88
2022/05/26 00:35:35;;;;;;;2.80;1.90;;;;;;;;;;5008928;28;20911;-88
2022/05/26 00:38:09;;;;;;;2.73;1.80;;;;;;;;;;5026166;28;20454;-88
2022/05/26 00:40:35;;;;;;;2.80;1.83;;;;;;;;;;5036822;28;20396;-86
2022/05/26 00:43:02;;;;;;;2.47;1.87;;;;;;;;;;5025347;28;20461;-86
2022/05/26 00:45:37;;;;;;;3.30;2.77;;;;;;;;;;5019557;28;20554;-83
2022/05/26 00:48:05;;;;;;;3.80;2.53;;;;;;;;;;5020918;28;20402;-85
2022/05/26 00:50:35;;;;;;;3.97;3.20;;;;;;;;;;5021621;28;20481;-86
2022/05/26 00:53:08;;;;;;;4.43;2.80;;;;;;;;;;5023164;28;20407;-88
2022/05/26 00:55:40;;;;;;;4.20;2.47;;;;;;;;;;5024310;28;20523;-88
2022/05/26 00:58:18;;;;;;;2.30;2.10;;;;;;;;;;5049090;23;20488;-83
2022/05/26 01:00:44;;;;;;;2.70;2.00;;;;;;;;;;5017810;28;20733;-84
2022/05/26 01:03:30;;;;;;;2.93;1.97;;;;;;;;;;5019485;28;20423;-85
2022/05/26 01:06:05;;;;;;;2.40;2.00;;;;;;;;;;5018961;28;20403;-84
2022/05/26 01:08:51;;;;;;;2.20;1.90;;;;;;;;;;4999131;28;20408;-82
2022/05/26 01:11:17;;;;;;;3.10;2.50;;;;;;;;;;4998029;28;20399;-84
2022/05/26 01:13:46;;;;;;;8.03;2.20;;;;;;;;;;5000322;28;20411;-85
2022/05/26 01:16:26;;;;;;;2.33;1.97;;;;;;;;;;5005662;28;20510;-85
2022/05/26 01:18:58;;;;;;;4.77;1.87;;;;;;;;;;4998290;28;20905;-86
2022/05/26 01:21:33;;;;;;;2.73;2.03;;;;;;;;;;4999122;28;20507;-86
2022/05/26 01:24:10;;;;;;;5.53;2.70;;;;;;;;;;4999425;28;20380;-85
2022/05/26 01:26:44;;;;;;;2.10;1.90;;;;;;;;;;4998306;28;20844;-85
2022/05/26 01:29:22;;;;;;;2.70;1.90;;;;;;;;;;4998021;28;20400;-86
2022/05/26 01:32:08;;;;;;;2.63;2.20;;;;;;;;;;4998901;28;20412;-85
2022/05/26 01:34:35;;;;;;;2.73;2.07;;;;;;;;;;5000764;28;20404;-83
2022/05/26 01:37:04;;;;;;;3.23;2.80;;;;;;;;;;4996769;28;20492;-85
2022/05/26 01:39:50;;;;;;;3.07;2.20;;;;;;;;;;4994212;28;20422;-84
2022/05/26 01:42:28;;;;;;;2.67;2.07;;;;;;;;;;4984933;28;20421;-85
2022/05/26 01:45:00;;;;;;;3.33;2.53;;;;;;;;;;4978441;28;20405;-85
2022/05/26 01:47:35;;;;;;;3.47;3.13;;;;;;;;;;4978498;28;20437;-85
2022/05/26 01:50:22;;;;;;;3.83;2.50;;;;;;;;;;4978829;28;20874;-85
2022/05/26 01:52:57;;;;;;;4.70;2.10;;;;;;;;;;4973584;28;20425;-86
2022/05/26 01:55:31;;;;;;;3.47;2.40;;;;;;;;;;4978876;28;20547;-84
2022/05/26 01:58:00;;;;;;;2.93;2.57;;;;;;;;;;4977464;28;20574;-84
2022/05/26 02:00:26;;;;;;;3.93;2.30;;;;;;;;;;4980352;28;20397;-84
2022/05/26 02:03:12;;;;;;;2.83;2.53;;;;;;;;;;4977823;28;20449;-85
2022/05/26 02:05:41;;;;;;;4.00;2.27;;;;;;;;;;4979552;28;20774;-83
2022/05/26 02:08:11;;;;;;;4.10;2.63;;;;;;;;;;4979312;28;20432;-85
2022/05/26 02:10:38;;;;;;;3.83;2.80;;;;;;;;;;4979744;28;20460;-84
2022/05/26 02:13:07;;;;;;;3.13;2.67;;;;;;;;;;4989348;28;20413;-82
2022/05/26 02:15:38;;;;;;;3.43;2.67;;;;;;;;;;4995018;28;20417;-85
2022/05/26 02:18:24;;;;;;;7.00;2.90;;;;;;;;;;4979048;28;20533;-86
2022/05/26 02:21:16;;;;;;;4.57;2.73;;;;;;;;;;4972302;28;20849;-85
2022/05/26 02:23:48;;;;;;;4.30;2.53;;;;;;;;;;4975348;28;20792;-86
2022/05/26 02:26:14;;;;;;;3.50;2.90;;;;;;;;;;4979845;28;20404;-82
2022/05/26 02:31:27;;;;;;;3.17;2.60;;;;;;;;;;4979018;28;20413;-84
2022/05/26 02:33:56;;;;;;;3.20;2.53;;;;;;;;;;4977318;28;20448;-85
2022/05/26 02:36:24;;;;;;;3.60;2.40;;;;;;;;;;4978834;28;20456;-83
2022/05/26 02:38:50;;;;;;;5.13;2.60;;;;;;;;;;4981590;28;20409;-85
2022/05/26 02:41:16;;;;;;;3.80;2.77;;;;;;;;;;4983345;28;20485;-84
2022/05/26 02:43:43;;;;;;;4.00;2.50;;;;;;;;;;4981787;28;20505;-86
2022/05/26 02:46:09;;;;;;;2.80;2.43;;;;;;;;;;4981884;28;20420;-84
2022/05/26 02:48:50;;;;;;;2.73;2.10;;;;;;;;;;4983072;28;20468;-83
2022/05/26 02:51:19;;;;;;;8.93;2.60;;;;;;;;;;4983326;28;20409;-84
2022/05/26 02:53:54;;;;;;;2.87;2.53;;;;;;;;;;4982579;28;20444;-85
2022/05/26 02:56:20;;;;;;;3.10;2.80;;;;;;;;;;4982541;28;20507;-85
2022/05/26 02:58:58;;;;;;;7.03;2.53;;;;;;;;;;4983348;28;20404;-84
2022/05/26 03:01:29;;;;;;;4.90;2.33;;;;;;;;;;4983019;28;20405;-84
2022/05/26 03:04:04;;;;;;;4.10;2.30;;;;;;;;;;4983657;28;20394;-85
2022/05/26 03:06:59;;;;;;;2.73;2.10;;;;;;;;;;4982048;28;20428;-84
2022/05/26 03:09:26;;;;;;;3.50;2.87;;;;;;;;;;4974179;28;20412;-83
2022/05/26 03:11:54;;;;;;;2.60;2.40;;;;;;;;;;4984509;28;20943;-83
2022/05/26 03:14:21;;;;;;;4.13;2.63;;;;;;;;;;4985318;28;20468;-84
2022/05/26 03:16:47;;;;;;;10.63;2.80;;;;;;;;;;5001231;28;20828;-83
2022/05/26 03:19:13;;;;;;;2.70;2.30;;;;;;;;;;5002497;28;20408;-84
2022/05/26 03:21:39;;;;;;;2.60;2.40;;;;;;;;;;5001003;28;20412;-83
2022/05/26 03:24:06;;;;;;;3.20;2.70;;;;;;;;;;5001276;28;20758;-84
2022/05/26 03:26:32;;;;;;;4.57;2.30;;;;;;;;;;5002145;28;20428;-83
2022/05/26 03:28:59;;;;;;;2.50;2.07;;;;;;;;;;5002335;28;20423;-84
2022/05/26 03:31:25;;;;;;;6.40;2.83;;;;;;;;;;5001963;28;20785;-86
2022/05/26 03:42:06;;;;;;;3.27;2.90;;;;;;;;;;5002378;28;20392;-84
2022/05/26 03:44:34;;;;;;;6.90;2.50;;;;;;;;;;5000619;28;20420;-84
2022/05/26 03:47:00;;;;;;;5.33;2.73;;;;;;;;;;5001838;28;20420;-84
2022/05/26 03:49:26;;;;;;;2.97;2.33;;;;;;;;;;5001677;28;20420;-84
2022/05/26 03:51:53;;;;;;;6.17;3.13;;;;;;;;;;5001184;28;20503;-85
2022/05/26 03:54:19;;;;;;;4.30;2.73;;;;;;;;;;5001104;28;20416;-85
2022/05/26 03:56:46;;;;;;;3.00;2.53;;;;;;;;;;5001825;28;20844;-84
2022/05/26 03:59:12;;;;;;;2.67;2.20;;;;;;;;;;5002631;28;20442;-85
2022/05/26 04:01:38;;;;;;;4.20;2.90;;;;;;;;;;4997210;28;20526;-84
2022/05/26 04:04:04;;;;;;;7.03;3.20;;;;;;;;;;4993855;28;20419;-84
2022/05/26 04:06:30;;;;;;;3.07;2.63;;;;;;;;;;5002855;28;20468;-84
2022/05/26 04:08:56;;;;;;;3.30;2.83;;;;;;;;;;5002627;28;20460;-84
2022/05/26 04:11:24;;;;;;;3.00;2.13;;;;;;;;;;5002511;28;20943;-83
2022/05/26 04:13:51;;;;;;;5.93;2.30;;;;;;;;;;5002445;28;20440;-86
2022/05/26 04:16:17;;;;;;;4.30;2.60;;;;;;;;;;5003136;28;20463;-83
2022/05/26 04:18:43;;;;;;;4.60;2.60;;;;;;;;;;5002576;28;20473;-85
2022/05/26 04:21:10;;;;;;;3.00;2.57;;;;;;;;;;5002258;28;20492;-85
2022/05/26 04:23:36;;;;;;;3.13;2.40;;;;;;;;;;5001504;28;20413;-84
2022/05/26 04:26:06;;;;;;;3.30;3.00;;;;;;;;;;5003694;28;20409;-84
2022/05/26 04:28:33;;;;;;;5.60;2.57;;;;;;;;;;5004871;28;20405;-84
2022/05/26 04:30:59;;;;;;;3.60;2.40;;;;;;;;;;5003524;28;20416;-85
2022/05/26 04:33:25;;;;;;;3.07;2.47;;;;;;;;;;5008896;28;20440;-85
2022/05/26 04:35:51;;;;;;;4.07;2.80;;;;;;;;;;5003737;28;20408;-84
2022/05/26 04:38:18;;;;;;;4.43;2.00;;;;;;;;;;5000444;28;20880;-85
2022/05/26 04:40:45;;;;;;;3.80;2.20;;;;;;;;;;5001868;28;20409;-85
2022/05/26 04:43:13;;;;;;;2.10;1.87;;;;;;;;;;5000772;28;20440;-85
2022/05/26 04:45:39;;;;;;;3.90;2.03;;;;;;;;;;5000650;28;20408;-85
2022/05/26 04:48:06;;;;;;;2.80;2.20;;;;;;;;;;5000482;28;20435;-86
2022/05/26 04:50:32;;;;;;;2.80;2.13;;;;;;;;;;5000090;28;20399;-84
2022/05/26 04:52:58;;;;;;;6.27;3.30;;;;;;;;;;5001370;28;20404;-84
2022/05/26 04:55:24;;;;;;;9.00;2.40;;;;;;;;;;5000620;28;20408;-83
2022/05/26 04:57:52;;;;;;;2.40;2.00;;;;;;;;;;5000779;28;20463;-84
2022/05/26 05:00:18;;;;;;;3.13;1.90;;;;;;;;;;5000987;28;20427;-85
2022/05/26 05:02:44;;;;;;;3.80;2.30;;;;;;;;;;5000520;28;20442;-83
2022/05/26 05:05:11;;;;;;;2.40;1.90;;;;;;;;;;5002023;28;20480;-84
2022/05/26 05:07:37;;;;;;;2.27;1.90;;;;;;;;;;5001681;28;20428;-85
2022/05/26 05:10:04;;;;;;;3.53;2.20;;;;;;;;;;5000348;28;20424;-83
2022/05/26 05:12:30;;;;;;;3.90;1.97;;;;;;;;;;5002208;28;20420;-84
2022/05/26 05:14:57;;;;;;;5.60;2.17;;;;;;;;;;5000985;28;20451;-84
2022/05/26 05:17:24;;;;;;;6.37;2.37;;;;;;;;;;5003556;28;21063;-84
2022/05/26 05:19:50;;;;;;;3.40;1.90;;;;;;;;;;5002617;28;20404;-86
2022/05/26 05:22:22;;;;;;;2.27;1.70;;;;;;;;;;5004302;28;20396;-85
2022/05/26 05:24:50;;;;;;;3.77;1.90;;;;;;;;;;5002281;28;20429;-86
2022/05/26 05:27:22;;;;;;;4.30;2.37;;;;;;;;;;5004940;28;20435;-84
2022/05/26 05:29:49;;;;;;;2.60;2.00;;;;;;;;;;5015986;28;20423;-84
2022/05/26 05:32:18;;;;;;;2.47;1.70;;;;;;;;;;5004417;28;20495;-85
2022/05/26 05:34:46;;;;;;;3.60;2.17;;;;;;;;;;5002004;28;20416;-86
2022/05/26 05:37:12;;;;;;;2.43;1.60;;;;;;;;;;5000546;28;20467;-86
2022/05/26 05:39:38;;;;;;;8.47;2.60;;;;;;;;;;5000742;28;20499;-86
2022/05/26 05:42:05;;;;;;;2.20;1.57;;;;;;;;;;5002442;28;20917;-86
2022/05/26 05:44:32;;;;;;;3.70;1.90;;;;;;;;;;5000275;28;20471;-85
2022/05/26 05:46:59;;;;;;;6.10;2.03;;;;;;;;;;5000261;28;20490;-85
2022/05/26 05:49:27;;;;;;;4.20;1.83;;;;;;;;;;5001885;28;20400;-85
2022/05/26 05:51:54;;;;;;;2.80;2.17;;;;;;;;;;5001488;28;20443;-85
2022/05/26 05:54:20;;;;;;;2.60;1.87;;;;;;;;;;4998159;28;20419;-82
2022/05/26 05:56:47;;;;;;;2.10;1.83;;;;;;;;;;4998314;28;20530;-86
2022/05/26 05:59:13;;;;;;;3.07;1.90;;;;;;;;;;4998463;28;20408;-86
2022/05/26 06:01:39;;;;;;;3.97;1.80;;;;;;;;;;4999054;28;20451;-85
2022/05/26 06:04:06;;;;;;;3.23;2.00;;;;;;;;;;4999150;28;20435;-85
2022/05/26 06:06:36;;;;;;;2.03;1.83;;;;;;;;;;4997986;28;20798;-84
2022/05/26 06:09:02;;;;;;;3.17;1.80;;;;;;;;;;4997705;28;20498;-84
2022/05/26 06:11:28;;;;;;;2.63;1.90;;;;;;;;;;4998284;28;20423;-84
2022/05/26 06:13:54;;;;;;;2.40;1.67;;;;;;;;;;4999168;28;20470;-84
2022/05/26 06:16:20;;;;;;;1.83;1.43;;;;;;;;;;5000947;28;20475;-85
2022/05/26 06:18:48;;;;;;;2.80;2.00;;;;;;;;;;4999568;28;20404;-84
2022/05/26 06:21:15;;;;;;;5.20;4.00;;;;;;;;;;4999991;28;20408;-85
2022/05/26 06:23:41;;;;;;;2.93;2.00;;;;;;;;;;4998330;28;20424;-84
2022/05/26 06:26:07;;;;;;;2.70;1.90;;;;;;;;;;4999553;28;20416;-85
2022/05/26 06:31:20;;;;;;;7.27;1.70;;;;;;;;;;5002484;28;20414;-86
2022/05/26 06:39:13;;;;;;;2.97;1.87;;;;;;;;;;5001466;28;20468;-85
2022/05/26 06:44:23;;;;;;;3.57;1.67;;;;;;;;;;5001467;28;20383;-86
2022/05/26 06:46:49;;;;;;;6.47;1.90;;;;;;;;;;5000751;28;20432;-85
2022/05/26 06:49:16;;;;;;;3.20;1.70;;;;;;;;;;5002476;28;20877;-86
2022/05/26 06:51:44;;;;;;;2.87;1.93;;;;;;;;;;4999848;28;20792;-86
2022/05/26 06:54:10;;;;;;;3.97;1.63;;;;;;;;;;5000753;28;20415;-86
2022/05/26 06:59:11;;;;;;;3.03;1.57;;;;;;;;;;5040779;28;20481;-83
2022/05/26 07:01:37;;;;;;;2.83;1.57;;;;;;;;;;5043274;28;20433;-84
2022/05/26 07:04:03;;;;;;;2.33;1.80;;;;;;;;;;5026830;28;20434;-83
2022/05/26 07:06:30;;;;;;;4.30;1.70;;;;;;;;;;5043383;28;20399;-84
2022/05/26 07:08:56;;;;;;;3.10;1.60;;;;;;;;;;5044339;28;20418;-83
2022/05/26 07:11:22;;;;;;;2.73;2.13;;;;;;;;;;5044558;28;20472;-84
2022/05/26 07:13:48;;;;;;;2.63;1.63;;;;;;;;;;5043990;28;20399;-84
2022/05/26 07:16:15;;;;;;;2.77;1.70;;;;;;;;;;5045201;28;20425;-84
2022/05/26 07:18:41;;;;;;;8.80;2.57;;;;;;;;;;5045132;28;20539;-84
2022/05/26 07:21:08;;;;;;;2.37;1.50;;;;;;;;;;5041893;28;20429;-84
2022/05/26 07:23:34;;;;;;;5.93;1.47;;;;;;;;;;5023160;28;20399;-83
2022/05/26 07:26:10;;;;;;;3.10;1.70;;;;;;;;;;5043907;28;20425;-84
2022/05/26 07:28:40;;;;;;;2.93;1.60;;;;;;;;;;5042954;28;20471;-84
2022/05/26 07:31:06;;;;;;;3.50;1.20;;;;;;;;;;5041865;28;20414;-84
2022/05/26 07:33:32;;;;;;;2.20;1.40;;;;;;;;;;5042437;28;20429;-84
2022/05/26 07:35:58;;;;;;;1.90;1.17;;;;;;;;;;5043244;28;20494;-82
2022/05/26 07:41:19;;;;;;;3.00;1.37;;;;;;;;;;5042485;28;20497;-81
2022/05/26 07:43:47;;;;;;;2.03;1.30;;;;;;;;;;5046280;28;20414;-82
2022/05/26 07:46:14;;;;;;;1.97;1.20;;;;;;;;;;5046224;28;20394;-86
2022/05/26 07:48:40;;;;;;;1.60;0.90;;;;;;;;;;5043137;28;20476;-84
2022/05/26 07:51:06;;;;;;;2.97;1.33;;;;;;;;;;5025368;28;20407;-84
2022/05/26 07:53:32;;;;;;;1.70;1.03;;;;;;;;;;5044882;28;20970;-84
2022/05/26 07:56:00;;;;;;;5.60;1.20;;;;;;;;;;5044064;28;20429;-84
2022/05/26 07:58:26;;;;;;;4.73;1.30;;;;;;;;;;5043431;28;20450;-85
2022/05/26 08:00:53;;;;;;;3.63;1.17;;;;;;;;;;5043572;28;20422;-84
2022/05/26 08:03:19;;;;;;;2.87;1.00;;;;;;;;;;5043977;28;20485;-84
2022/05/26 08:05:45;;;;;;;1.87;1.10;;;;;;;;;;5044068;28;20410;-84
2022/05/26 08:08:11;;;;;;;1.70;1.13;;;;;;;;;;5043664;28;20430;-84
2022/05/26 08:10:39;;;;;;;2.90;1.30;;;;;;;;;;5044676;28;20403;-84
2022/05/26 08:13:06;;;;;;;3.20;1.40;;;;;;;;;;5043854;28;20425;-85
2022/05/26 08:15:32;;;;;;;3.40;1.30;;;;;;;;;;5044203;28;20403;-84
2022/05/26 08:17:58;;;;;;;2.43;1.50;;;;;;;;;;5044077;28;21055;-84
2022/05/26 08:20:25;;;;;;;2.57;1.10;;;;;;;;;;5043539;28;20472;-84
2022/05/26 08:22:51;;;;;;;4.47;1.73;;;;;;;;;;5026229;28;20407;-84
2022/05/26 08:25:17;;;;;;;2.50;1.30;;;;;;;;;;5043955;28;20899;-84
2022/05/26 08:27:43;;;;;;;1.40;0.87;;;;;;;;;;5043580;28;20457;-84
2022/05/26 08:30:09;;;;;;;2.20;1.30;;;;;;;;;;5044380;28;20414;-85
2022/05/26 08:32:36;;;;;;;5.20;1.37;;;;;;;;;;5044217;28;20413;-84
2022/05/26 08:35:04;;;;;;;2.97;1.10;;;;;;;;;;5038099;28;20545;-82
2022/05/26 08:37:30;;;;;;;6.07;1.67;;;;;;;;;;5035863;28;20835;-83
2022/05/26 08:39:57;;;;;;;2.37;1.33;;;;;;;;;;5035826;28;20441;-83
2022/05/26 08:42:27;;;;;;;4.87;1.40;;;;;;;;;;5035813;28;20413;-83
2022/05/26 08:44:55;;;;;;;2.20;1.20;;;;;;;;;;5036784;28;20403;-84
2022/05/26 08:47:23;;;;;;;3.57;1.57;;;;;;;;;;5021845;28;20455;-82
2022/05/26 08:49:50;;;;;;;2.53;1.60;;;;;;;;;;5023266;28;20442;-81
2022/05/26 08:52:31;;;;;;;2.57;1.50;;;;;;;;;;5041352;28;20783;-82
2022/05/26 08:55:03;;;;;;;6.03;1.80;;;;;;;;;;5041218;28;20414;-84
2022/05/26 08:57:33;;;;;;;2.20;1.60;;;;;;;;;;5021950;28;20470;-84
2022/05/26 09:00:00;;;;;;;2.20;1.27;;;;;;;;;;5040584;28;20466;-84
2022/05/26 09:02:33;;;;;;;3.97;1.60;;;;;;;;;;5041607;28;20470;-84
2022/05/26 09:05:01;;;;;;;5.60;1.30;;;;;;;;;;5042188;28;20394;-84
2022/05/26 09:13:03;;;;;;;3.63;1.20;;;;;;;;;;5043006;28;20815;-84
2022/05/26 09:15:30;;;;;;;2.83;1.40;;;;;;;;;;5024426;28;20465;-84
2022/05/26 09:17:56;;;;;;;4.13;1.30;;;;;;;;;;5024283;28;20496;-84
2022/05/26 09:20:28;;;;;;;2.77;0.90;;;;;;;;;;5041505;28;20411;-84
2022/05/26 09:22:54;;;;;;;1.97;1.20;;;;;;;;;;5042950;28;20396;-84
2022/05/26 09:25:32;;;;;;;2.00;1.00;;;;;;;;;;5042577;28;20457;-84
2022/05/26 09:27:58;;;;;;;3.57;1.57;;;;;;;;;;5041910;28;20426;-84
2022/05/26 09:30:29;;;;;;;2.47;1.20;;;;;;;;;;5042516;28;20410;-84
2022/05/26 09:32:55;;;;;;;3.03;1.30;;;;;;;;;;5041693;28;20438;-84
2022/05/26 09:35:27;;;;;;;2.33;1.13;;;;;;;;;;5041314;28;20958;-84
2022/05/26 09:37:55;;;;;;;1.90;1.03;;;;;;;;;;5042155;28;20454;-84
2022/05/26 09:40:26;;;;;;;2.20;0.90;;;;;;;;;;5023951;28;20438;-84
2022/05/26 09:43:03;;;;;;;3.67;1.27;;;;;;;;;;5042016;28;20489;-84
2022/05/26 09:45:36;;;;;;;4.03;1.53;;;;;;;;;;5041286;28;20414;-85
2022/05/26 09:48:02;;;;;;;2.70;1.23;;;;;;;;;;5041646;28;20426;-84
2022/05/26 09:50:37;;;;;;;1.90;1.00;;;;;;;;;;5042492;28;20433;-84
2022/05/26 09:53:05;;;;;;;2.10;1.13;;;;;;;;;;5042253;28;20780;-84
2022/05/26 09:55:41;;;;;;;2.17;1.00;;;;;;;;;;5044951;28;20449;-84
2022/05/26 09:58:12;;;;;;;2.77;1.00;;;;;;;;;;5043475;28;20479;-85
2022/05/26 10:00:38;;;;;;;2.00;0.80;;;;;;;;;;5041659;28;20485;-83
2022/05/26 10:03:09;;;;;;;2.07;1.00;;;;;;;;;;5042450;28;20802;-84
2022/05/26 10:05:43;;;;;;;6.10;1.10;;;;;;;;;;5042067;28;20386;-84
2022/05/26 10:08:09;;;;;;;3.53;1.07;;;;;;;;;;5042320;28;20509;-83
2022/05/26 10:10:53;;;;;;;3.40;0.97;;;;;;;;;;5042390;28;20893;-84
2022/05/26 10:13:26;;;;;;;2.97;1.27;;;;;;;;;;5041832;28;20474;-84
2022/05/26 10:16:11;;;;;;;2.80;1.30;;;;;;;;;;5042427;28;20410;-84
2022/05/26 10:18:40;;;;;;;1.60;0.90;;;;;;;;;;5042838;28;20427;-82
2022/05/26 10:21:16;;;;;;;3.83;1.20;;;;;;;;;;5042404;28;20405;-82
2022/05/26 10:23:42;;;;;;;2.23;1.00;;;;;;;;;;5042628;28;20413;-84
2022/05/26 10:26:08;;;;;;;3.87;1.37;;;;;;;;;;5041765;28;20406;-84
2022/05/26 10:28:56;;;;;;;3.17;1.00;;;;;;;;;;5042548;28;20433;-84
2022/05/26 10:31:28;;;;;;;2.17;1.10;;;;;;;;;;5042198;28;20395;-84
2022/05/26 10:34:06;;;;;;;2.90;1.00;;;;;;;;;;5043428;28;20387;-84
2022/05/26 10:37:11;;;;;;;3.17;1.20;;;;;;;;;;5045761;28;20442;-84
2022/05/26 10:39:46;;;;;;;3.27;1.23;;;;;;;;;;4943774;29;20426;-84
2022/05/26 10:42:25;;;;;;;2.63;1.00;;;;;;;;;;4942889;29;20521;-84
2022/05/26 10:45:10;;;;;;;3.53;1.53;;;;;;;;;;5004234;28;20458;-84
2022/05/26 10:47:48;;;;;;;2.10;1.20;;;;;;;;;;5024614;28;20449;-84
2022/05/26 10:50:24;;;;;;;4.23;1.17;;;;;;;;;;5045460;28;20422;-84
2022/05/26 10:52:55;;;;;;;2.83;1.27;;;;;;;;;;5037029;28;20410;-83
2022/05/26 10:55:36;;;;;;;2.10;1.10;;;;;;;;;;5034941;28;20423;-84
2022/05/26 10:58:20;;;;;;;3.97;1.23;;;;;;;;;;5037468;28;20523;-83
2022/05/26 11:00:49;;;;;;;1.57;1.07;;;;;;;;;;5040355;28;20402;-83
2022/05/26 11:03:23;;;;;;;2.60;1.10;;;;;;;;;;5022983;28;20418;-82
2022/05/26 11:05:51;;;;;;;2.80;0.90;;;;;;;;;;5028086;28;20454;-82
2022/05/26 11:08:33;;;;;;;2.20;1.10;;;;;;;;;;5043420;28;20517;-82
2022/05/26 11:11:20;;;;;;;3.50;1.30;;;;;;;;;;5044029;28;20458;-82
2022/05/26 11:13:55;;;;;;;3.20;1.00;;;;;;;;;;5025851;28;20402;-82
2022/05/26 11:19:33;;;;;;;2.70;0.93;;;;;;;;;;5045493;28;20441;-82
2022/05/26 11:22:01;;;;;;;4.70;1.00;;;;;;;;;;5028928;28;20433;-81
2022/05/26 11:24:27;;;;;;;1.80;0.97;;;;;;;;;;5048562;28;20434;-82
2022/05/26 11:26:56;;;;;;;3.30;0.90;;;;;;;;;;5025681;28;20441;-82
2022/05/26 11:29:46;;;;;;;3.53;1.00;;;;;;;;;;5025582;28;20411;-82
2022/05/26 11:37:53;;;;;;;4.00;1.03;;;;;;;;;;5045290;28;20481;-83
2022/05/26 11:40:26;;;;;;;2.17;1.10;;;;;;;;;;5044801;28;20403;-83
2022/05/26 11:42:54;;;;;;;3.70;1.00;;;;;;;;;;5044707;28;20864;-83
2022/05/26 11:45:20;;;;;;;1.50;0.80;;;;;;;;;;5046172;28;20902;-83
2022/05/26 11:47:49;;;;;;;3.70;1.10;;;;;;;;;;5045285;28;20434;-83
2022/05/26 11:50:25;;;;;;;2.53;1.20;;;;;;;;;;5044623;28;20782;-83
2022/05/26 11:52:54;;;;;;;5.00;0.90;;;;;;;;;;5045183;28;20402;-83
2022/05/26 11:55:31;;;;;;;2.53;0.90;;;;;;;;;;5044424;28;20394;-83
2022/05/26 11:57:57;;;;;;;1.70;1.00;;;;;;;;;;5043707;28;20837;-83
2022/05/26 12:00:37;;;;;;;3.20;1.03;;;;;;;;;;5044745;28;20411;-83
2022/05/26 12:03:22;;;;;;;2.03;1.03;;;;;;;;;;5026508;28;20425;-83
2022/05/26 12:06:06;;;;;;;6.10;1.30;;;;;;;;;;5044439;28;20409;-82
2022/05/26 12:08:36;;;;;;;2.23;1.00;;;;;;;;;;5036650;28;20435;-81
2022/05/26 12:11:06;;;;;;;3.10;1.30;;;;;;;;;;5035525;28;20410;-82
2022/05/26 12:13:33;;;;;;;3.00;1.50;;;;;;;;;;5036703;28;20914;-82
2022/05/26 12:16:11;;;;;;;1.70;0.90;;;;;;;;;;5037958;28;20520;-82
2022/05/26 12:18:38;;;;;;;2.33;1.00;;;;;;;;;;5038540;28;20500;-82
2022/05/26 12:21:13;;;;;;;2.30;1.10;;;;;;;;;;5020476;28;20406;-82
2022/05/26 12:23:39;;;;;;;2.83;1.17;;;;;;;;;;5038569;28;20371;-82
2022/05/26 12:26:23;;;;;;;2.47;1.00;;;;;;;;;;5040167;28;20391;-83
2022/05/26 12:28:49;;;;;;;1.67;0.90;;;;;;;;;;5039557;28;20433;-82
2022/05/26 12:31:16;;;;;;;3.27;1.23;;;;;;;;;;5022383;28;20906;-83
2022/05/26 12:34:02;;;;;;;5.13;1.37;;;;;;;;;;5039691;28;20402;-83
2022/05/26 12:36:34;;;;;;;4.67;2.47;;;;;;;;;;5023120;28;20477;-83
2022/05/26 12:39:19;;;;;;;2.63;1.00;;;;;;;;;;5041604;28;20422;-83
2022/05/26 12:42:03;;;;;;;1.50;0.80;;;;;;;;;;5041137;28;20422;-83
2022/05/26 12:44:43;;;;;;;1.80;1.10;;;;;;;;;;5042149;28;20481;-83
2022/05/26 12:47:38;;;;;;;1.90;0.90;;;;;;;;;;5042482;28;20413;-83
2022/05/26 12:50:07;;;;;;;2.10;1.00;;;;;;;;;;5041300;28;20413;-83
2022/05/26 12:52:44;;;;;;;1.70;0.80;;;;;;;;;;5040669;28;20976;-83
2022/05/26 12:55:29;;;;;;;1.47;0.70;;;;;;;;;;5040835;28;20402;-83
2022/05/26 12:58:01;;;;;;;2.13;1.07;;;;;;;;;;5050592;23;20496;-87
2022/05/26 13:00:31;;;;;;;2.17;0.90;;;;;;;;;;4990754;28;20420;-85
2022/05/26 13:02:59;;;;;;;2.13;0.90;;;;;;;;;;5021325;28;20387;-85
2022/05/26 13:05:26;;;;;;;2.10;0.80;;;;;;;;;;5020779;28;20391;-85
2022/05/26 13:07:54;;;;;;;2.70;0.90;;;;;;;;;;5002199;28;20498;-84
2022/05/26 13:10:29;;;;;;;3.40;1.07;;;;;;;;;;5020882;28;20474;-84
2022/05/26 13:12:55;;;;;;;1.70;0.87;;;;;;;;;;5020347;28;20383;-83
2022/05/26 13:15:25;;;;;;;2.70;0.90;;;;;;;;;;5021084;28;20407;-85
2022/05/26 13:17:52;;;;;;;5.80;1.50;;;;;;;;;;5021595;28;20473;-86
2022/05/26 13:20:23;;;;;;;3.60;1.60;;;;;;;;;;5004234;28;20409;-85
2022/05/26 13:22:49;;;;;;;1.63;1.10;;;;;;;;;;5004037;28;20411;-86
2022/05/26 13:25:21;;;;;;;3.50;1.20;;;;;;;;;;5003097;28;20475;-86
2022/05/26 13:27:49;;;;;;;2.27;1.00;;;;;;;;;;5019553;28;20473;-85
2022/05/26 13:33:08;;;;;;;2.80;1.03;;;;;;;;;;5020087;28;20467;-84
2022/05/26 13:35:47;;;;;;;2.10;1.13;;;;;;;;;;5019595;28;20741;-84
2022/05/26 13:38:27;;;;;;;2.83;1.07;;;;;;;;;;5020234;28;20530;-84
2022/05/26 13:40:53;;;;;;;2.63;0.90;;;;;;;;;;5020088;28;20419;-85
2022/05/26 13:43:20;;;;;;;2.77;1.20;;;;;;;;;;5003901;28;20577;-84
2022/05/26 13:45:47;;;;;;;3.33;1.00;;;;;;;;;;5020852;28;20418;-85
2022/05/26 13:48:31;;;;;;;1.73;1.10;;;;;;;;;;5019573;28;20419;-83
2022/05/26 13:51:17;;;;;;;3.30;1.20;;;;;;;;;;5004972;28;20818;-85
2022/05/26 13:53:47;;;;;;;2.10;0.97;;;;;;;;;;5029506;28;20403;-84
2022/05/26 13:56:25;;;;;;;3.73;1.30;;;;;;;;;;5030818;28;20395;-87
2022/05/26 13:58:53;;;;;;;3.23;1.30;;;;;;;;;;5025429;28;20454;-85
2022/05/26 14:01:22;;;;;;;2.80;1.00;;;;;;;;;;5021250;28;20399;-85
2022/05/26 14:03:53;;;;;;;2.07;0.90;;;;;;;;;;5020587;28;20472;-85
2022/05/26 14:06:28;;;;;;;3.10;0.93;;;;;;;;;;5020348;28;20396;-84
2022/05/26 14:08:56;;;;;;;4.60;0.90;;;;;;;;;;5021236;28;20526;-84
2022/05/26 14:11:26;;;;;;;2.53;1.13;;;;;;;;;;5019640;28;20415;-86
2022/05/26 14:13:52;;;;;;;2.77;1.00;;;;;;;;;;5001942;28;20911;-86
2022/05/26 14:16:20;;;;;;;3.97;1.00;;;;;;;;;;5002105;28;20442;-85
2022/05/26 14:18:50;;;;;;;4.17;1.30;;;;;;;;;;5017016;28;20427;-83
2022/05/26 14:21:19;;;;;;;2.80;1.10;;;;;;;;;;5016066;28;20415;-84
2022/05/26 14:23:48;;;;;;;3.30;0.90;;;;;;;;;;5015739;28;20415;-82
2022/05/26 14:26:30;;;;;;;3.00;1.50;;;;;;;;;;5016908;28;20399;-84
2022/05/26 14:28:56;;;;;;;2.63;1.07;;;;;;;;;;4999216;28;20423;-85
2022/05/26 14:31:24;;;;;;;3.10;1.00;;;;;;;;;;5023379;28;20438;-84
2022/05/26 14:33:57;;;;;;;6.60;1.20;;;;;;;;;;5022770;28;20419;-86
2022/05/26 14:36:23;;;;;;;2.27;0.90;;;;;;;;;;5005684;28;20413;-86
2022/05/26 14:38:50;;;;;;;2.00;0.97;;;;;;;;;;5023259;28;20519;-86
2022/05/26 14:41:16;;;;;;;2.37;1.00;;;;;;;;;;5024334;28;20433;-86
2022/05/26 14:43:45;;;;;;;2.97;0.90;;;;;;;;;;5022919;28;20439;-86
2022/05/26 14:46:11;;;;;;;10.43;1.47;;;;;;;;;;5005404;28;20412;-86
2022/05/26 14:48:38;;;;;;;2.73;1.10;;;;;;;;;;5005526;28;20431;-86
2022/05/26 14:51:04;;;;;;;2.27;0.80;;;;;;;;;;5006349;28;20419;-86
2022/05/26 14:56:16;;;;;;;3.70;0.90;;;;;;;;;;5022526;28;20387;-86
2022/05/26 14:58:43;;;;;;;4.80;1.20;;;;;;;;;;5022748;28;20446;-86
2022/05/26 15:01:09;;;;;;;2.57;1.20;;;;;;;;;;5023406;28;20447;-84
2022/05/26 15:03:35;;;;;;;2.53;0.97;;;;;;;;;;5023121;28;20415;-85
2022/05/26 15:06:01;;;;;;;3.97;1.37;;;;;;;;;;5022936;28;20406;-86
2022/05/26 15:08:41;;;;;;;2.00;0.90;;;;;;;;;;5004637;28;20577;-86
2022/05/26 15:11:11;;;;;;;3.57;1.00;;;;;;;;;;5007800;28;20396;-83
2022/05/26 15:13:37;;;;;;;5.00;1.00;;;;;;;;;;5036668;28;20403;-86
2022/05/26 15:16:05;;;;;;;3.03;1.00;;;;;;;;;;5031318;28;20403;-84
2022/05/26 15:18:31;;;;;;;2.83;1.20;;;;;;;;;;5023345;28;20459;-85
2022/05/26 15:20:57;;;;;;;4.20;1.23;;;;;;;;;;5022747;28;20408;-83
2022/05/26 15:23:23;;;;;;;2.27;0.93;;;;;;;;;;5022820;28;20402;-85
2022/05/26 15:26:08;;;;;;;1.90;1.20;;;;;;;;;;5004327;28;20407;-85
2022/05/26 15:28:34;;;;;;;1.97;1.20;;;;;;;;;;5022485;28;20927;-84
2022/05/26 15:31:00;;;;;;;3.73;1.20;;;;;;;;;;5022725;28;20454;-84
2022/05/26 15:33:29;;;;;;;2.30;1.10;;;;;;;;;;5022453;28;20414;-85
2022/05/26 15:35:55;;;;;;;2.13;0.90;;;;;;;;;;5021811;28;20915;-85
2022/05/26 15:38:22;;;;;;;4.57;1.40;;;;;;;;;;5021991;28;20873;-85
2022/05/26 15:40:48;;;;;;;4.53;1.20;;;;;;;;;;5021572;28;20461;-84
2022/05/26 15:43:15;;;;;;;1.80;1.00;;;;;;;;;;5002956;28;20493;-85
2022/05/26 15:45:43;;;;;;;2.03;0.73;;;;;;;;;;5002930;28;20498;-84
2022/05/26 15:48:11;;;;;;;6.70;1.00;;;;;;;;;;5021032;28;20435;-85